createdAt,value
2023-02-27T00:01:47.555Z,73.44
2023-02-27T00:04:50.610Z,73.19
2023-02-27T00:07:53.402Z,73.77
2023-02-27T00:10:56.366Z,72.94
2023-02-27T00:13:58.976Z,73.58
2023-02-27T00:17:03.065Z,73.85
2023-02-27T00:20:08.229Z,73.68
2023-02-27T00:23:11.126Z,74.42
2023-02-27T00:26:13.975Z,73.75
2023-02-27T00:29:16.939Z,74.35
2023-02-27T00:32:19.812Z,73.95
2023-02-27T00:35:23.085Z,74.13
2023-02-27T00:38:27.446Z,75.96
2023-02-27T00:41:33.169Z,75.35
2023-02-27T00:44:36.029Z,74.88
2023-02-27T00:47:38.942Z,75.17
2023-02-27T00:50:41.711Z,74.69
2023-02-27T00:53:44.660Z,74.18
2023-02-27T00:56:47.958Z,75.49
2023-02-27T00:59:51.619Z,75.30
2023-02-27T01:02:54.374Z,74.25
2023-02-27T01:05:58.246Z,74.68
2023-02-27T01:09:01.084Z,73.94
2023-02-27T01:12:04.399Z,73.68
2023-02-27T01:15:08.382Z,74.41
2023-02-27T01:18:11.293Z,74.26
2023-02-27T01:21:13.971Z,75.67
2023-02-27T01:24:17.104Z,73.87
2023-02-27T01:27:19.778Z,74.16
2023-02-27T01:30:23.168Z,73.86
2023-02-27T01:33:25.834Z,74.15
2023-02-27T01:36:28.791Z,75.06
2023-02-27T01:39:33.100Z,73.96
2023-02-27T01:42:36.202Z,73.91
2023-02-27T01:45:43.785Z,73.70
2023-02-27T01:48:47.653Z,74.07
2023-02-27T01:52:10.433Z,73.63
2023-02-27T01:55:14.948Z,74.08
2023-02-27T01:58:18.069Z,72.63
2023-02-27T02:01:22.430Z,72.22
2023-02-27T02:04:28.659Z,72.08
2023-02-27T02:07:35.745Z,72.81
2023-02-27T02:10:40.022Z,70.99
2023-02-27T02:13:42.944Z,71.88
2023-02-27T02:17:32.159Z,70.78
2023-02-27T02:20:56.251Z,69.27
2023-02-27T02:24:20.618Z,69.82
2023-02-27T02:27:33.219Z,70.34
2023-02-27T02:31:05.700Z,70.45
2023-02-27T02:34:46.172Z,71.31
2023-02-27T02:38:26.341Z,70.69
2023-02-27T02:41:45.740Z,71.31
2023-02-27T02:45:17.618Z,70.49
2023-02-27T02:48:30.693Z,69.53
2023-02-27T02:51:42.252Z,69.60
2023-02-27T02:54:50.982Z,70.04
2023-02-27T02:58:19.984Z,68.84
2023-02-27T03:01:32.814Z,69.19
2023-02-27T03:04:44.536Z,69.00
2023-02-27T03:07:57.077Z,68.77
2023-02-27T03:11:04.743Z,70.70
2023-02-27T03:14:33.622Z,68.31
2023-02-27T03:18:05.447Z,67.72
2023-02-27T03:21:15.041Z,67.07
2023-02-27T03:24:31.379Z,67.99
2023-02-27T03:27:43.534Z,67.00
2023-02-27T03:31:10.160Z,67.86
2023-02-27T03:34:23.454Z,68.85
2023-02-27T03:37:42.595Z,67.13
2023-02-27T03:41:03.838Z,66.53
2023-02-27T03:44:20.243Z,67.60
2023-02-27T03:47:23.399Z,67.62
2023-02-27T03:50:26.306Z,67.96
2023-02-27T03:53:41.709Z,67.78
2023-02-27T03:56:50.454Z,68.36
2023-02-27T03:59:53.645Z,68.79
2023-02-27T04:02:59.780Z,69.38
2023-02-27T04:06:22.935Z,68.79
2023-02-27T04:09:55.938Z,69.52
2023-02-27T04:13:11.281Z,71.06
2023-02-27T04:16:34.201Z,69.29
2023-02-27T04:20:07.273Z,70.44
2023-02-27T04:23:18.340Z,70.89
2023-02-27T04:26:23.833Z,71.78
2023-02-27T04:30:01.674Z,72.04
2023-02-27T04:33:15.212Z,70.96
2023-02-27T04:36:39.610Z,72.05
2023-02-27T04:39:53.561Z,71.83
2023-02-27T04:42:59.449Z,71.85
2023-02-27T04:46:06.052Z,70.66
2023-02-27T04:49:14.834Z,71.21
2023-02-27T04:52:47.098Z,71.40
2023-02-27T04:55:54.753Z,69.67
2023-02-27T04:59:03.820Z,71.54
2023-02-27T05:02:19.903Z,71.32
2023-02-27T05:05:27.370Z,69.89
2023-02-27T05:08:35.955Z,70.90
2023-02-27T05:11:53.805Z,70.24
2023-02-27T05:15:14.347Z,69.39
2023-02-27T05:18:20.287Z,70.05
2023-02-27T05:22:29.567Z,68.55
2023-02-27T05:25:35.361Z,69.63
2023-02-27T05:28:40.983Z,69.52
2023-02-27T05:31:52.088Z,69.82
2023-02-27T05:35:07.956Z,68.65
2023-02-27T05:38:27.555Z,70.80
2023-02-27T05:41:37.412Z,70.52
2023-02-27T05:44:49.847Z,68.94
2023-02-27T05:48:02.518Z,67.22
2023-02-27T05:51:09.316Z,66.83
2023-02-27T05:54:33.939Z,67.60
2023-02-27T05:57:51.594Z,67.48
2023-02-27T06:00:56.533Z,67.26
2023-02-27T06:03:59.556Z,69.92
2023-02-27T06:07:04.921Z,68.16
2023-02-27T06:10:11.542Z,69.67
2023-02-27T06:13:14.537Z,68.11
2023-02-27T06:16:17.581Z,67.43
2023-02-27T06:19:20.391Z,66.66
2023-02-27T06:22:23.726Z,68.68
2023-02-27T06:25:27.415Z,67.21
2023-02-27T06:28:30.409Z,69.17
2023-02-27T06:31:33.038Z,67.07
2023-02-27T06:34:35.886Z,66.39
2023-02-27T06:37:40.543Z,67.08
2023-02-27T06:40:45.896Z,68.31
2023-02-27T06:43:49.307Z,67.23
2023-02-27T06:46:52.808Z,66.55
2023-02-27T06:49:57.098Z,66.44
2023-02-27T06:53:01.015Z,63.95
2023-02-27T06:56:04.114Z,64.70
2023-02-27T06:59:07.689Z,65.16
2023-02-27T07:02:12.728Z,65.20
2023-02-27T07:05:16.088Z,64.85
2023-02-27T07:08:18.929Z,63.67
2023-02-27T07:11:21.765Z,64.25
2023-02-27T07:14:25.774Z,68.02
2023-02-27T07:17:28.635Z,64.58
2023-02-27T07:20:31.489Z,64.89
2023-02-27T07:23:35.302Z,64.86
2023-02-27T07:26:38.238Z,61.66
2023-02-27T07:29:41.186Z,61.71
2023-02-27T07:32:44.205Z,62.27
2023-02-27T07:35:47.278Z,62.52
2023-02-27T07:38:50.297Z,63.52
2023-02-27T07:41:53.573Z,60.93
2023-02-27T07:44:58.184Z,60.57
2023-02-27T07:48:01.437Z,60.75
2023-02-27T07:51:04.177Z,60.30
2023-02-27T07:54:07.143Z,60.30
2023-02-27T07:57:09.934Z,60.40
2023-02-27T08:00:13.832Z,60.57
2023-02-27T08:03:17.441Z,59.36
2023-02-27T08:06:20.072Z,60.23
2023-02-27T08:09:23.864Z,59.14
2023-02-27T08:12:26.522Z,58.37
2023-02-27T08:15:29.553Z,58.69
2023-02-27T08:18:34.281Z,59.02
2023-02-27T08:21:37.968Z,60.02
2023-02-27T08:24:41.010Z,59.28
2023-02-27T08:27:44.043Z,59.68
2023-02-27T08:30:46.835Z,60.22
2023-02-27T08:33:58.054Z,60.13
2023-02-27T08:37:10.428Z,61.22
2023-02-27T08:40:13.412Z,60.84
2023-02-27T08:43:16.958Z,59.68
2023-02-27T08:46:20.420Z,60.29
2023-02-27T08:49:25.267Z,62.21
2023-02-27T08:52:28.312Z,61.00
2023-02-27T08:55:30.918Z,62.66
2023-02-27T08:58:35.975Z,61.29
2023-02-27T09:01:38.710Z,59.27
2023-02-27T09:04:41.794Z,60.09
2023-02-27T09:07:44.437Z,60.67
2023-02-27T09:10:47.893Z,59.97
2023-02-27T09:13:51.626Z,59.62
2023-02-27T09:16:55.878Z,60.71
2023-02-27T09:20:00.125Z,58.58
2023-02-27T09:23:04.270Z,58.57
2023-02-27T09:26:09.172Z,60.36
2023-02-27T09:29:12.206Z,58.01
2023-02-27T09:32:15.136Z,57.33
2023-02-27T09:35:20.537Z,59.28
2023-02-27T09:38:23.403Z,58.32
2023-02-27T09:42:01.953Z,57.40
2023-02-27T09:45:07.693Z,58.78
2023-02-27T09:48:39.339Z,57.08
2023-02-27T09:51:42.271Z,56.76
2023-02-27T09:54:45.350Z,56.32
2023-02-27T09:57:57.052Z,57.23
2023-02-27T10:01:11.569Z,57.41
2023-02-27T10:04:33.708Z,58.29
2023-02-27T10:07:47.608Z,56.01
2023-02-27T10:11:03.707Z,56.50
2023-02-27T10:14:22.389Z,56.24
2023-02-27T10:17:33.765Z,57.55
2023-02-27T10:20:43.266Z,56.22
2023-02-27T10:23:57.770Z,57.80
2023-02-27T10:27:05.800Z,55.71
2023-02-27T10:30:28.519Z,57.44
2023-02-27T10:33:38.373Z,56.57
2023-02-27T10:36:42.815Z,57.26
2023-02-27T10:39:49.909Z,56.41
2023-02-27T10:42:55.104Z,55.96
2023-02-27T10:46:11.056Z,56.83
2023-02-27T10:49:20.606Z,55.70
2023-02-27T10:52:23.445Z,55.59
2023-02-27T10:55:43.121Z,54.96
2023-02-27T10:58:46.172Z,54.03
2023-02-27T11:01:54.839Z,54.06
2023-02-27T11:05:00.196Z,51.81
2023-02-27T11:08:35.690Z,52.90
2023-02-27T11:11:38.525Z,56.08
2023-02-27T11:15:16.573Z,53.26
2023-02-27T11:18:25.873Z,53.58
2023-02-27T11:21:30.940Z,55.27
2023-02-27T11:24:34.096Z,54.80
2023-02-27T11:27:37.110Z,53.96
2023-02-27T11:30:42.412Z,54.60
2023-02-27T11:33:58.962Z,52.39
2023-02-27T11:37:06.021Z,52.68
2023-02-27T11:40:09.098Z,53.09
2023-02-27T11:43:19.425Z,54.25
2023-02-27T11:46:46.992Z,52.87
2023-02-27T11:50:03.105Z,51.88
2023-02-27T11:53:10.174Z,52.32
2023-02-27T11:56:22.377Z,51.93
2023-02-27T11:59:32.885Z,51.80
2023-02-27T12:02:52.662Z,53.41
2023-02-27T12:06:03.519Z,53.25
2023-02-27T12:09:33.339Z,53.03
2023-02-27T12:13:03.001Z,53.25
2023-02-27T12:16:32.410Z,52.74
2023-02-27T12:20:04.385Z,51.72
2023-02-27T12:23:45.623Z,53.31
2023-02-27T12:27:07.596Z,53.82
2023-02-27T12:30:21.572Z,53.68
2023-02-27T12:33:52.653Z,51.80
2023-02-27T12:37:17.903Z,50.82
2023-02-27T12:40:46.229Z,51.25
2023-02-27T12:44:01.044Z,49.90
2023-02-27T12:47:19.446Z,51.81
2023-02-27T12:50:24.953Z,50.46
2023-02-27T12:53:43.110Z,50.79
2023-02-27T12:57:23.464Z,50.31
2023-02-27T13:00:30.245Z,50.66
2023-02-27T13:03:48.927Z,51.50
2023-02-27T13:07:01.170Z,52.07
2023-02-27T13:10:14.416Z,51.67
2023-02-27T13:13:36.010Z,51.65
2023-02-27T13:16:46.581Z,50.27
2023-02-27T13:19:59.900Z,51.02
2023-02-27T13:23:11.754Z,51.52
2023-02-27T13:26:22.955Z,50.48
2023-02-27T13:29:39.690Z,52.07
2023-02-27T13:32:53.040Z,51.08
2023-02-27T13:36:12.800Z,53.74
2023-02-27T13:39:43.888Z,51.84
2023-02-27T13:42:46.896Z,50.67
2023-02-27T13:45:56.980Z,50.77
2023-02-27T13:49:05.480Z,51.48
2023-02-27T13:52:08.428Z,50.97
2023-02-27T13:55:37.812Z,51.02
2023-02-27T13:58:41.810Z,50.33
2023-02-27T14:01:55.868Z,50.78
2023-02-27T14:05:06.309Z,50.02
2023-02-27T14:08:14.932Z,51.18
2023-02-27T14:11:28.774Z,52.55
2023-02-27T14:14:37.889Z,49.89
2023-02-27T14:17:45.019Z,49.75
2023-02-27T14:20:51.472Z,50.94
2023-02-27T14:23:54.919Z,50.53
2023-02-27T14:26:58.234Z,51.25
2023-02-27T14:30:05.268Z,51.53
2023-02-27T14:33:10.973Z,50.71
2023-02-27T14:36:21.250Z,50.67
2023-02-27T14:39:30.735Z,49.38
2023-02-27T14:42:44.750Z,50.39
2023-02-27T14:45:48.927Z,50.27
2023-02-27T14:48:57.633Z,50.75
2023-02-27T14:52:22.396Z,49.84
2023-02-27T14:55:52.641Z,51.74
2023-02-27T14:59:04.395Z,51.51
2023-02-27T15:02:35.691Z,51.02
2023-02-27T15:05:38.863Z,50.03
2023-02-27T15:08:45.290Z,51.25
2023-02-27T15:11:57.509Z,52.30
2023-02-27T15:15:10.586Z,52.05
2023-02-27T15:18:15.225Z,52.37
2023-02-27T15:21:20.730Z,52.27
2023-02-27T15:24:26.336Z,53.63
2023-02-27T15:27:30.256Z,52.63
2023-02-27T15:30:33.582Z,52.74
2023-02-27T15:33:36.918Z,54.82
2023-02-27T15:36:46.260Z,54.27
2023-02-27T15:39:51.675Z,54.92
2023-02-27T15:42:55.239Z,55.41
2023-02-27T15:45:58.611Z,55.89
2023-02-27T15:49:01.501Z,54.35
2023-02-27T15:52:13.298Z,55.16
2023-02-27T15:55:23.895Z,54.97
2023-02-27T15:58:26.819Z,54.88
2023-02-27T16:01:35.207Z,55.28
2023-02-27T16:04:38.664Z,55.87
2023-02-27T16:07:43.163Z,56.08
2023-02-27T16:10:47.515Z,58.24
2023-02-27T16:13:51.217Z,58.04
2023-02-27T16:16:55.846Z,58.85
2023-02-27T16:20:02.082Z,59.22
2023-02-27T16:23:20.185Z,60.26
2023-02-27T16:26:39.338Z,59.35
2023-02-27T16:29:45.298Z,60.90
2023-02-27T16:32:48.191Z,61.77
2023-02-27T16:36:04.981Z,62.63
2023-02-27T16:39:13.290Z,62.56
2023-02-27T16:42:16.633Z,63.84
2023-02-27T16:45:28.375Z,62.48
2023-02-27T16:48:31.280Z,64.61
2023-02-27T16:51:34.954Z,65.24
2023-02-27T16:54:38.068Z,66.54
2023-02-27T16:57:40.729Z,66.02
2023-02-27T17:00:44.281Z,65.98
2023-02-27T17:03:47.702Z,66.99
2023-02-27T17:06:51.437Z,65.22
2023-02-27T17:09:54.240Z,64.55
2023-02-27T17:12:57.276Z,65.88
2023-02-27T17:16:00.025Z,66.82
2023-02-27T17:19:03.707Z,68.37
2023-02-27T17:22:06.657Z,69.46
2023-02-27T17:25:10.561Z,69.36
2023-02-27T17:28:13.745Z,70.70
2023-02-27T17:31:18.763Z,68.24
2023-02-27T17:34:21.528Z,68.46
2023-02-27T17:37:27.169Z,71.52
2023-02-27T17:40:30.544Z,69.66
2023-02-27T17:43:33.751Z,69.69
2023-02-27T17:46:36.505Z,71.12
2023-02-27T17:49:39.883Z,71.23
2023-02-27T17:52:43.132Z,71.64
2023-02-27T17:55:46.220Z,69.54
2023-02-27T17:58:49.992Z,68.43
2023-02-27T18:01:55.509Z,70.21
2023-02-27T18:04:58.945Z,69.98
2023-02-27T18:08:01.693Z,69.46
2023-02-27T18:11:10.918Z,69.81
2023-02-27T18:14:14.016Z,69.71
2023-02-27T18:17:16.974Z,70.80
2023-02-27T18:20:20.355Z,67.58
2023-02-27T18:23:23.634Z,68.43
2023-02-27T18:26:30.995Z,68.57
2023-02-27T18:29:34.558Z,68.15
2023-02-27T18:32:37.778Z,69.34
2023-02-27T18:35:42.759Z,69.25
2023-02-27T18:38:45.920Z,70.16
2023-02-27T18:41:49.245Z,69.01
2023-02-27T18:44:52.120Z,68.54
2023-02-27T18:47:55.850Z,70.58
2023-02-27T18:51:04.989Z,68.40
2023-02-27T18:54:11.610Z,69.30
2023-02-27T18:57:15.854Z,69.83
2023-02-27T19:00:21.704Z,72.77
2023-02-27T19:03:25.712Z,71.30
2023-02-27T19:06:34.507Z,69.30
2023-02-27T19:09:37.702Z,71.90
2023-02-27T19:12:42.545Z,70.94
2023-02-27T19:15:45.791Z,70.35
2023-02-27T19:18:49.402Z,69.63
2023-02-27T19:21:52.312Z,71.49
2023-02-27T19:24:58.000Z,71.80
2023-02-27T19:28:01.086Z,71.97
2023-02-27T19:31:10.071Z,69.82
2023-02-27T19:34:14.777Z,68.42
2023-02-27T19:37:17.897Z,69.18
2023-02-27T19:40:23.936Z,69.06
2023-02-27T19:43:27.516Z,68.35
2023-02-27T19:46:33.428Z,68.51
2023-02-27T19:49:37.532Z,68.17
2023-02-27T19:52:41.043Z,68.99
2023-02-27T19:55:44.496Z,68.73
2023-02-27T19:58:48.205Z,70.47
2023-02-27T20:01:52.218Z,71.24
2023-02-27T20:04:55.447Z,69.14
2023-02-27T20:07:58.215Z,68.81
2023-02-27T20:11:04.516Z,69.88
2023-02-27T20:14:07.952Z,70.44
2023-02-27T20:17:11.562Z,69.42
2023-02-27T20:20:15.451Z,71.09
2023-02-27T20:23:18.817Z,70.67
2023-02-27T20:26:29.527Z,71.65
2023-02-27T20:29:33.245Z,70.89
2023-02-27T20:32:36.223Z,69.98
2023-02-27T20:35:40.383Z,69.56
2023-02-27T20:38:43.920Z,69.12
2023-02-27T20:41:47.276Z,69.72
2023-02-27T20:44:53.291Z,68.90
2023-02-27T20:48:00.831Z,68.62
2023-02-27T20:51:11.768Z,68.32
2023-02-27T20:54:20.408Z,69.32
2023-02-27T20:57:23.772Z,70.44
2023-02-27T21:00:27.126Z,69.70
2023-02-27T21:03:38.299Z,70.85
2023-02-27T21:06:42.205Z,68.84
2023-02-27T21:09:45.684Z,70.41
2023-02-27T21:12:49.043Z,69.58
2023-02-27T21:15:51.936Z,69.60
2023-02-27T21:18:56.783Z,69.12
2023-02-27T21:21:59.725Z,69.77
2023-02-27T21:25:02.906Z,69.26
2023-02-27T21:28:06.526Z,69.39
2023-02-27T21:31:09.758Z,69.37
2023-02-27T21:34:14.953Z,69.06
2023-02-27T21:37:17.965Z,69.74
2023-02-27T21:40:21.708Z,70.70
2023-02-27T21:43:24.758Z,70.12
2023-02-27T21:46:28.066Z,69.99
2023-02-27T21:49:31.326Z,70.55
2023-02-27T21:52:34.048Z,69.62
2023-02-27T21:55:37.164Z,70.02
2023-02-27T21:58:40.107Z,70.86
2023-02-27T22:01:47.308Z,69.21
2023-02-27T22:04:50.347Z,69.68
2023-02-27T22:07:52.976Z,68.85
2023-02-27T22:10:57.762Z,69.29
2023-02-27T22:14:00.679Z,70.14
2023-02-27T22:17:03.638Z,70.12
2023-02-27T22:20:07.304Z,70.33
2023-02-27T22:23:10.371Z,69.98
2023-02-27T22:26:16.209Z,70.49
2023-02-27T22:29:19.404Z,69.95
2023-02-27T22:32:22.120Z,69.77
2023-02-27T22:35:25.406Z,70.65
2023-02-27T22:38:29.103Z,70.39
2023-02-27T22:41:34.967Z,70.25
2023-02-27T22:44:37.627Z,70.47
2023-02-27T22:47:40.852Z,70.15
2023-02-27T22:50:43.455Z,70.05
2023-02-27T22:53:46.638Z,70.36
2023-02-27T22:56:51.101Z,70.45
2023-02-27T22:59:54.017Z,72.10
2023-02-27T23:02:56.682Z,71.56
2023-02-27T23:06:00.226Z,71.06
2023-02-27T23:09:05.561Z,70.78
2023-02-27T23:12:08.587Z,71.38
2023-02-27T23:15:11.482Z,70.79
2023-02-27T23:18:14.746Z,71.03
2023-02-27T23:21:19.719Z,71.96
2023-02-27T23:24:22.608Z,70.83
2023-02-27T23:27:26.525Z,71.60
2023-02-27T23:30:30.240Z,70.65
2023-02-27T23:33:33.045Z,71.03
2023-02-27T23:36:37.811Z,70.86
2023-02-27T23:39:40.786Z,70.57
2023-02-27T23:42:43.755Z,70.84
2023-02-27T23:45:46.536Z,70.52
2023-02-27T23:48:49.684Z,69.31
2023-02-27T23:51:52.408Z,69.71
2023-02-27T23:54:55.339Z,71.53
2023-02-27T23:57:59.698Z,70.13
